createdAt,value
2019-01-27T00:01:02.804Z,31.07
2019-01-27T00:03:29.427Z,30.47
2019-01-27T00:05:56.138Z,29.87
2019-01-27T00:08:22.871Z,30.53
2019-01-27T00:10:49.493Z,28.50
2019-01-27T00:13:17.177Z,28.40
2019-01-27T00:15:44.104Z,28.80
2019-01-27T00:18:12.314Z,26.90
2019-01-27T00:20:39.146Z,29.07
2019-01-27T00:23:06.101Z,29.50
2019-01-27T00:25:33.041Z,29.80
2019-01-27T00:27:59.945Z,29.00
2019-01-27T00:30:26.606Z,28.85
2019-01-27T00:32:53.255Z,30.07
2019-01-27T00:35:20.542Z,28.15
2019-01-27T00:37:47.303Z,29.70
2019-01-27T00:40:14.269Z,28.45
2019-01-27T00:42:42.628Z,29.60
2019-01-27T00:45:09.375Z,30.17
2019-01-27T00:47:36.246Z,29.40
2019-01-27T00:50:02.914Z,29.37
2019-01-27T00:52:29.548Z,31.37
2019-01-27T00:54:56.440Z,29.33
2019-01-27T00:57:23.083Z,29.52
2019-01-27T00:59:49.717Z,30.03
2019-01-27T01:02:16.637Z,29.63
2019-01-27T01:04:43.710Z,30.10
2019-01-27T01:07:11.274Z,30.95
2019-01-27T01:09:39.100Z,28.83
2019-01-27T01:12:08.352Z,30.23
2019-01-27T01:14:36.365Z,29.00
2019-01-27T01:17:09.611Z,28.67
2019-01-27T01:19:38.269Z,28.30
2019-01-27T01:22:05.914Z,29.77
2019-01-27T01:24:33.732Z,33.53
2019-01-27T01:27:01.240Z,32.33
2019-01-27T01:29:30.123Z,31.30
2019-01-27T01:32:01.644Z,33.67
2019-01-27T01:34:33.241Z,32.93
2019-01-27T01:37:02.042Z,26.50
2019-01-27T01:39:31.816Z,29.63
2019-01-27T01:41:59.738Z,27.27
2019-01-27T01:44:27.625Z,28.32
2019-01-27T01:46:58.724Z,29.60
2019-01-27T01:49:31.721Z,30.63
2019-01-27T01:51:59.633Z,28.35
2019-01-27T01:54:29.356Z,28.33
2019-01-27T01:56:57.626Z,27.75
2019-01-27T01:59:28.502Z,27.30
2019-01-27T02:01:56.508Z,28.30
2019-01-27T02:04:25.300Z,31.47
2019-01-27T02:06:54.932Z,30.10
2019-01-27T02:09:26.048Z,27.73
2019-01-27T02:11:59.272Z,29.93
2019-01-27T02:14:30.362Z,26.87
2019-01-27T02:16:58.327Z,32.20
2019-01-27T02:19:26.254Z,30.57
2019-01-27T02:21:55.924Z,28.47
2019-01-27T02:24:26.059Z,30.90
2019-01-27T02:26:53.034Z,30.20
2019-01-27T02:29:20.062Z,28.05
2019-01-27T02:31:48.419Z,29.70
2019-01-27T02:34:19.183Z,27.93
2019-01-27T02:36:45.883Z,24.67
2019-01-27T02:39:13.320Z,22.00
2019-01-27T02:41:40.041Z,24.97
2019-01-27T02:44:06.879Z,25.20
2019-01-27T02:46:33.587Z,24.43
2019-01-27T02:49:00.337Z,21.87
2019-01-27T02:51:27.038Z,23.93
2019-01-27T02:53:53.963Z,21.93
2019-01-27T02:56:20.752Z,25.90
2019-01-27T02:58:47.893Z,22.97
2019-01-27T03:01:15.974Z,27.67
2019-01-27T03:03:42.759Z,28.37
2019-01-27T03:06:10.590Z,27.43
2019-01-27T03:08:38.123Z,27.67
2019-01-27T03:11:05.130Z,26.03
2019-01-27T03:13:33.768Z,26.07
2019-01-27T03:16:01.474Z,24.60
2019-01-27T03:18:28.433Z,21.13
2019-01-27T03:20:55.921Z,23.83
2019-01-27T03:23:23.592Z,21.57
2019-01-27T03:25:51.191Z,21.27
2019-01-27T03:28:19.901Z,18.90
2019-01-27T03:30:47.990Z,20.60
2019-01-27T03:33:15.832Z,20.17
2019-01-27T03:35:43.300Z,19.10
2019-01-27T03:38:10.260Z,20.57
2019-01-27T03:40:37.273Z,22.13
2019-01-27T03:43:04.000Z,19.47
2019-01-27T03:45:31.004Z,18.98
2019-01-27T03:47:58.271Z,18.02
2019-01-27T03:50:25.790Z,17.10
2019-01-27T03:52:54.174Z,15.60
2019-01-27T03:55:22.275Z,14.33
2019-01-27T03:57:49.908Z,14.47
2019-01-27T04:00:17.561Z,15.40
2019-01-27T04:02:45.620Z,15.17
2019-01-27T04:05:13.107Z,14.47
2019-01-27T04:07:40.022Z,14.67
2019-01-27T04:10:07.075Z,14.83
2019-01-27T04:12:33.809Z,15.70
2019-01-27T04:15:00.627Z,15.40
2019-01-27T04:17:27.647Z,15.65
2019-01-27T04:19:54.563Z,18.20
2019-01-27T04:22:22.311Z,16.87
2019-01-27T04:24:49.105Z,21.67
2019-01-27T04:27:15.951Z,23.27
2019-01-27T04:29:42.586Z,21.20
2019-01-27T04:32:09.494Z,23.67
2019-01-27T04:34:36.548Z,24.20
2019-01-27T04:37:03.833Z,21.48
2019-01-27T04:42:17.584Z,25.50
2019-01-27T04:44:49.781Z,24.87
2019-01-27T04:47:19.279Z,26.00
2019-01-27T04:49:46.313Z,22.03
2019-01-27T04:52:15.710Z,25.10
2019-01-27T04:54:42.407Z,25.70
2019-01-27T04:57:09.786Z,25.53
2019-01-27T04:59:39.514Z,21.95
2019-01-27T05:02:06.311Z,22.07
2019-01-27T05:04:33.080Z,23.17
2019-01-27T05:06:59.902Z,24.60
2019-01-27T05:09:26.970Z,24.82
2019-01-27T05:11:53.925Z,21.73
2019-01-27T05:14:20.565Z,21.55
2019-01-27T05:16:47.252Z,22.80
2019-01-27T05:19:14.080Z,22.57
2019-01-27T05:21:41.001Z,21.02
2019-01-27T05:24:07.593Z,20.00
2019-01-27T05:26:34.209Z,20.30
2019-01-27T05:29:01.104Z,20.17
2019-01-27T05:31:27.727Z,18.03
2019-01-27T05:33:54.398Z,18.63
2019-01-27T05:36:21.336Z,18.27
2019-01-27T05:38:48.156Z,18.30
2019-01-27T05:41:16.622Z,18.42
2019-01-27T05:43:43.446Z,19.20
2019-01-27T05:46:10.373Z,18.23
2019-01-27T05:48:37.282Z,18.42
2019-01-27T05:51:03.929Z,20.70
2019-01-27T05:53:30.547Z,19.53
2019-01-27T05:55:57.576Z,18.10
2019-01-27T05:58:24.619Z,20.27
2019-01-27T06:00:51.588Z,20.80
2019-01-27T06:03:18.513Z,19.30
2019-01-27T06:05:46.966Z,21.66
2019-01-27T06:08:13.646Z,22.73
2019-01-27T06:10:40.628Z,21.73
2019-01-27T06:13:07.541Z,21.37
2019-01-27T06:15:34.153Z,19.17
2019-01-27T06:18:00.750Z,22.40
2019-01-27T06:20:27.636Z,21.70
2019-01-27T06:22:54.238Z,20.23
2019-01-27T06:25:20.885Z,20.75
2019-01-27T06:27:47.776Z,21.57
2019-01-27T06:30:14.399Z,21.17
2019-01-27T06:32:41.047Z,20.57
2019-01-27T06:35:07.952Z,20.50
2019-01-27T06:37:38.438Z,19.57
2019-01-27T06:40:09.186Z,21.90
2019-01-27T06:42:36.271Z,21.73
2019-01-27T06:45:04.441Z,19.17
2019-01-27T06:47:31.359Z,22.60
2019-01-27T06:49:58.841Z,21.03
2019-01-27T06:52:27.382Z,21.00
2019-01-27T06:54:54.175Z,20.20
2019-01-27T06:57:21.134Z,19.67
2019-01-27T06:59:47.785Z,21.90
2019-01-27T07:02:14.436Z,21.70
2019-01-27T07:04:41.208Z,21.03
2019-01-27T07:07:07.824Z,22.80
2019-01-27T07:09:34.447Z,25.77
2019-01-27T07:12:01.870Z,22.85
2019-01-27T07:14:28.600Z,27.00
2019-01-27T07:16:55.414Z,24.10
2019-01-27T07:19:22.265Z,25.12
2019-01-27T07:21:48.951Z,22.80
2019-01-27T07:24:15.656Z,22.13
2019-01-27T07:26:42.826Z,24.12
2019-01-27T07:29:09.637Z,21.83
2019-01-27T07:31:37.873Z,23.45
2019-01-27T07:34:04.642Z,24.50
2019-01-27T07:36:31.295Z,24.77
2019-01-27T07:38:57.931Z,24.93
2019-01-27T07:41:24.814Z,22.80
2019-01-27T07:43:51.820Z,22.65
2019-01-27T07:46:18.743Z,20.90
2019-01-27T07:48:46.620Z,21.30
2019-01-27T07:51:14.489Z,22.67
2019-01-27T07:53:44.067Z,21.93
2019-01-27T07:56:14.495Z,22.53
2019-01-27T07:58:43.634Z,23.12
2019-01-27T08:01:11.280Z,23.17
2019-01-27T08:03:38.662Z,22.37
2019-01-27T08:06:05.236Z,23.90
2019-01-27T08:08:32.240Z,23.27
2019-01-27T08:10:59.159Z,23.30
2019-01-27T08:13:26.114Z,23.10
2019-01-27T08:15:52.748Z,22.70
2019-01-27T08:18:19.415Z,22.60
2019-01-27T08:20:46.253Z,24.73
2019-01-27T08:23:13.796Z,23.60
2019-01-27T08:25:40.480Z,22.40
2019-01-27T08:28:08.739Z,24.60
2019-01-27T08:30:35.420Z,23.53
2019-01-27T08:33:08.119Z,22.90
2019-01-27T08:35:34.698Z,26.37
2019-01-27T08:38:01.457Z,24.43
2019-01-27T08:40:28.403Z,25.10
2019-01-27T08:42:55.087Z,21.80
2019-01-27T08:45:22.077Z,25.60
2019-01-27T08:47:48.710Z,24.93
2019-01-27T08:50:15.574Z,25.80
2019-01-27T08:52:42.207Z,28.43
2019-01-27T08:55:09.077Z,26.53
2019-01-27T08:57:35.705Z,29.63
2019-01-27T09:00:02.628Z,28.23
2019-01-27T09:02:29.607Z,28.35
2019-01-27T09:04:56.330Z,27.50
2019-01-27T09:07:22.988Z,29.30
2019-01-27T09:09:49.714Z,28.27
2019-01-27T09:12:16.301Z,27.57
2019-01-27T09:14:42.942Z,26.33
2019-01-27T09:17:09.835Z,26.30
2019-01-27T09:19:36.611Z,26.87
2019-01-27T09:22:03.250Z,26.13
2019-01-27T09:24:30.253Z,28.47
2019-01-27T09:26:56.909Z,26.68
2019-01-27T09:29:23.541Z,29.90
2019-01-27T09:31:50.212Z,30.37
2019-01-27T09:34:16.843Z,31.33
2019-01-27T09:36:43.823Z,27.60
2019-01-27T09:39:10.737Z,30.87
2019-01-27T09:41:37.406Z,27.77
2019-01-27T09:44:04.024Z,30.07
2019-01-27T09:46:31.197Z,28.57
2019-01-27T09:48:58.008Z,29.83
2019-01-27T09:51:24.943Z,26.57
2019-01-27T09:53:51.652Z,29.23
2019-01-27T09:56:18.393Z,28.27
2019-01-27T09:58:45.059Z,27.47
2019-01-27T10:01:13.539Z,27.48
2019-01-27T10:03:40.156Z,27.87
2019-01-27T10:06:07.096Z,27.82
2019-01-27T10:08:33.724Z,28.40
2019-01-27T10:11:00.480Z,27.30
2019-01-27T10:13:27.408Z,26.73
2019-01-27T10:15:54.343Z,29.20
2019-01-27T10:18:20.991Z,27.30
2019-01-27T10:20:47.587Z,25.02
2019-01-27T10:23:14.509Z,28.50
2019-01-27T10:25:41.468Z,26.27
2019-01-27T10:28:08.128Z,26.47
2019-01-27T10:30:34.887Z,25.40
2019-01-27T10:33:01.707Z,26.93
2019-01-27T10:35:28.644Z,24.23
2019-01-27T10:37:56.209Z,25.23
2019-01-27T10:40:25.306Z,26.73
2019-01-27T10:42:52.000Z,27.07
2019-01-27T10:45:21.608Z,25.20
2019-01-27T10:47:48.949Z,23.43
2019-01-27T10:50:16.216Z,23.17
2019-01-27T10:52:45.855Z,24.32
2019-01-27T10:55:17.823Z,26.83
2019-01-27T10:57:48.354Z,27.17
2019-01-27T11:00:16.156Z,26.42
2019-01-27T11:02:46.743Z,29.70
2019-01-27T11:05:14.442Z,29.12
2019-01-27T11:07:46.264Z,27.82
2019-01-27T11:10:14.174Z,27.63
2019-01-27T11:12:43.788Z,27.13
2019-01-27T11:15:10.778Z,28.17
2019-01-27T11:17:40.742Z,28.40
2019-01-27T11:20:11.443Z,30.03
2019-01-27T11:22:42.642Z,32.33
2019-01-27T11:25:19.252Z,32.40
2019-01-27T11:27:42.992Z,31.87
2019-01-27T11:30:13.318Z,32.35
2019-01-27T11:35:29.750Z,38.53
2019-01-27T11:37:57.823Z,37.47
2019-01-27T11:40:25.945Z,36.37
2019-01-27T11:42:53.100Z,35.27
2019-01-27T11:45:24.217Z,36.83
2019-01-27T11:47:51.933Z,36.67
2019-01-27T11:50:24.420Z,38.30
2019-01-27T11:52:54.924Z,37.60
2019-01-27T11:55:24.357Z,36.27
2019-01-27T11:58:05.919Z,37.03
2019-01-27T12:00:31.109Z,35.43
2019-01-27T12:02:58.938Z,36.67
2019-01-27T12:05:26.260Z,35.00
2019-01-27T12:07:54.359Z,35.13
2019-01-27T12:10:22.120Z,31.90
2019-01-27T12:12:51.502Z,31.50
2019-01-27T12:15:19.305Z,32.00
2019-01-27T12:17:51.983Z,29.53
2019-01-27T12:20:19.733Z,30.25
2019-01-27T12:22:47.309Z,29.93
2019-01-27T12:25:15.402Z,31.90
2019-01-27T12:27:43.305Z,29.20
2019-01-27T12:30:16.303Z,29.77
2019-01-27T12:32:45.702Z,32.60
2019-01-27T12:35:21.228Z,27.52
2019-01-27T12:37:48.117Z,28.15
2019-01-27T12:40:14.698Z,27.03
2019-01-27T12:42:43.567Z,28.73
2019-01-27T12:45:12.341Z,28.15
2019-01-27T12:47:40.985Z,27.83
2019-01-27T12:50:08.171Z,27.27
2019-01-27T12:52:34.983Z,28.20
2019-01-27T12:55:03.378Z,25.63
2019-01-27T12:57:31.857Z,28.27
2019-01-27T13:00:01.403Z,23.53
2019-01-27T13:02:28.020Z,26.60
2019-01-27T13:04:57.043Z,25.73
2019-01-27T13:07:23.804Z,24.50
2019-01-27T13:09:53.902Z,29.37
2019-01-27T13:12:22.603Z,24.30
2019-01-27T13:14:49.274Z,25.30
2019-01-27T13:17:17.295Z,26.87
2019-01-27T13:19:44.354Z,26.10
2019-01-27T13:22:12.376Z,27.53
2019-01-27T13:24:41.658Z,27.13
2019-01-27T13:27:08.276Z,28.30
2019-01-27T13:29:38.894Z,28.95
2019-01-27T13:32:06.514Z,30.55
2019-01-27T13:34:34.221Z,28.93
2019-01-27T13:37:03.075Z,28.27
2019-01-27T13:39:30.700Z,28.00
2019-01-27T13:41:57.630Z,31.57
2019-01-27T13:44:24.771Z,38.20
2019-01-27T13:46:52.769Z,31.93
2019-01-27T13:49:26.249Z,29.63
2019-01-27T13:51:53.119Z,26.10
2019-01-27T13:54:19.824Z,25.40
2019-01-27T13:56:46.636Z,26.47
2019-01-27T13:59:13.618Z,26.67
2019-01-27T14:01:40.909Z,26.97
2019-01-27T14:04:07.639Z,26.57
2019-01-27T14:06:34.622Z,26.57
2019-01-27T14:09:01.316Z,23.80
2019-01-27T14:11:27.935Z,24.90
2019-01-27T14:13:54.850Z,24.80
2019-01-27T14:16:21.898Z,23.07
2019-01-27T14:18:49.142Z,22.52
2019-01-27T14:21:16.556Z,23.33
2019-01-27T14:23:44.092Z,25.00
2019-01-27T14:26:10.989Z,25.35
2019-01-27T14:28:37.622Z,25.13
2019-01-27T14:31:04.367Z,22.83
2019-01-27T14:33:31.221Z,23.33
2019-01-27T14:35:58.150Z,27.63
2019-01-27T14:38:25.178Z,25.70
2019-01-27T14:40:52.133Z,24.45
2019-01-27T14:43:18.776Z,26.00
2019-01-27T14:45:45.392Z,22.32
2019-01-27T14:48:12.435Z,36.77
2019-01-27T14:50:39.422Z,28.50
2019-01-27T14:53:07.751Z,24.65
2019-01-27T14:55:34.383Z,29.23
2019-01-27T14:58:01.356Z,27.73
2019-01-27T15:00:28.312Z,26.05
2019-01-27T15:02:55.008Z,26.63
2019-01-27T15:05:21.773Z,25.77
2019-01-27T15:07:48.720Z,25.97
2019-01-27T15:10:15.565Z,26.30
2019-01-27T15:12:42.494Z,23.80
2019-01-27T15:15:09.452Z,24.65
2019-01-27T15:17:37.325Z,23.97
2019-01-27T15:20:04.046Z,25.17
2019-01-27T15:22:30.639Z,24.67
2019-01-27T15:24:57.723Z,24.33
2019-01-27T15:27:24.677Z,23.57
2019-01-27T15:29:51.347Z,25.27
2019-01-27T15:32:18.436Z,27.40
2019-01-27T15:34:45.054Z,29.80
2019-01-27T15:37:12.068Z,26.87
2019-01-27T15:39:38.849Z,26.00
2019-01-27T15:42:05.992Z,28.65
2019-01-27T15:44:32.868Z,26.43
2019-01-27T15:47:00.104Z,28.65
2019-01-27T15:49:26.847Z,31.57
2019-01-27T15:51:53.558Z,29.30
2019-01-27T15:54:20.226Z,26.23
2019-01-27T15:56:47.193Z,25.00
2019-01-27T15:59:14.344Z,24.32
2019-01-27T16:01:41.317Z,28.47
2019-01-27T16:04:08.498Z,34.07
2019-01-27T16:06:35.587Z,30.83
2019-01-27T16:09:02.265Z,27.67
2019-01-27T16:11:29.187Z,30.37
2019-01-27T16:13:55.859Z,27.80
2019-01-27T16:16:22.785Z,29.02
2019-01-27T16:18:49.762Z,30.37
2019-01-27T16:21:16.848Z,34.58
2019-01-27T16:23:43.553Z,30.13
2019-01-27T16:26:10.502Z,33.03
2019-01-27T16:28:38.906Z,34.58
2019-01-27T16:31:05.651Z,37.40
2019-01-27T16:33:32.634Z,35.20
2019-01-27T16:35:59.582Z,35.05
2019-01-27T16:38:26.334Z,34.30
2019-01-27T16:40:52.972Z,34.30
2019-01-27T16:43:20.263Z,32.83
2019-01-27T16:45:46.974Z,34.13
2019-01-27T16:48:14.041Z,30.97
2019-01-27T16:50:41.002Z,33.93
2019-01-27T16:53:09.320Z,32.50
2019-01-27T16:55:36.064Z,35.10
2019-01-27T16:58:02.986Z,34.03
2019-01-27T17:00:29.654Z,32.93
2019-01-27T17:02:56.909Z,31.30
2019-01-27T17:05:23.672Z,35.00
2019-01-27T17:07:50.416Z,33.07
2019-01-27T17:10:17.149Z,36.63
2019-01-27T17:12:44.623Z,32.88
2019-01-27T17:15:11.634Z,37.73
2019-01-27T17:17:39.606Z,35.40
2019-01-27T17:20:06.276Z,39.00
2019-01-27T17:22:33.293Z,40.93
2019-01-27T17:25:00.534Z,39.00
2019-01-27T17:27:27.341Z,43.47
2019-01-27T17:29:54.385Z,42.60
2019-01-27T17:32:21.446Z,37.80
2019-01-27T17:34:49.005Z,35.57
2019-01-27T17:37:15.596Z,37.47
2019-01-27T17:39:42.537Z,33.77
2019-01-27T17:42:09.805Z,36.97
2019-01-27T17:44:36.463Z,34.40
2019-01-27T17:47:03.103Z,36.67
2019-01-27T17:49:29.747Z,36.67
2019-01-27T17:51:56.913Z,37.43
2019-01-27T17:54:24.557Z,37.77
2019-01-27T17:56:51.263Z,38.33
2019-01-27T17:59:18.408Z,36.83
2019-01-27T18:01:45.009Z,37.07
2019-01-27T18:04:11.954Z,38.07
2019-01-27T18:06:38.957Z,37.60
2019-01-27T18:09:05.764Z,38.17
2019-01-27T18:11:33.370Z,34.75
2019-01-27T18:14:00.344Z,40.53
2019-01-27T18:16:27.169Z,38.60
2019-01-27T18:18:54.096Z,34.48
2019-01-27T18:21:21.006Z,34.80
2019-01-27T18:23:47.683Z,35.17
2019-01-27T18:26:14.431Z,37.70
2019-01-27T18:28:41.891Z,32.42
2019-01-27T18:31:08.663Z,33.63
2019-01-27T18:33:35.433Z,32.33
2019-01-27T18:36:04.068Z,36.53
2019-01-27T18:38:30.782Z,33.67
2019-01-27T18:40:57.555Z,35.63
2019-01-27T18:43:24.191Z,38.30
2019-01-27T18:45:50.898Z,38.70
2019-01-27T18:48:18.084Z,39.37
2019-01-27T18:50:44.715Z,37.57
2019-01-27T18:53:13.220Z,36.50
2019-01-27T18:55:40.249Z,36.30
2019-01-27T18:58:07.069Z,35.97
2019-01-27T19:00:34.144Z,33.00
2019-01-27T19:03:00.843Z,34.00
2019-01-27T19:05:27.878Z,31.50
2019-01-27T19:07:54.892Z,35.30
2019-01-27T19:10:21.848Z,30.07
2019-01-27T19:12:48.487Z,32.65
2019-01-27T19:15:15.077Z,32.20
2019-01-27T19:17:41.926Z,30.03
2019-01-27T19:20:08.720Z,32.70
2019-01-27T19:22:35.631Z,36.13
2019-01-27T19:25:02.215Z,31.20
2019-01-27T19:27:29.109Z,32.60
2019-01-27T19:29:55.962Z,58.60
2019-01-27T19:32:22.637Z,38.03
2019-01-27T19:34:49.257Z,45.17
2019-01-27T19:37:16.155Z,39.70
2019-01-27T19:39:42.917Z,36.55
2019-01-27T19:42:09.613Z,36.90
2019-01-27T19:44:36.835Z,32.23
2019-01-27T19:47:04.989Z,33.13
2019-01-27T19:49:31.717Z,33.30
2019-01-27T19:51:58.386Z,33.00
2019-01-27T19:54:25.337Z,34.17
2019-01-27T19:56:52.012Z,36.43
2019-01-27T19:59:18.754Z,36.60
2019-01-27T20:01:45.722Z,35.90
2019-01-27T20:04:12.509Z,36.37
2019-01-27T20:06:39.465Z,35.43
2019-01-27T20:09:06.275Z,37.93
2019-01-27T20:11:34.179Z,34.17
2019-01-27T20:14:00.803Z,35.43
2019-01-27T20:16:27.832Z,35.87
2019-01-27T20:18:54.682Z,30.03
2019-01-27T20:21:21.557Z,33.30
2019-01-27T20:23:48.188Z,31.50
2019-01-27T20:26:15.173Z,31.50
2019-01-27T20:28:42.155Z,34.50
2019-01-27T20:31:08.851Z,30.12
2019-01-27T20:33:35.956Z,30.05
2019-01-27T20:36:02.883Z,31.33
2019-01-27T20:38:34.142Z,33.98
2019-01-27T20:41:02.942Z,30.65
2019-01-27T20:43:29.920Z,28.27
2019-01-27T20:46:05.183Z,33.33
2019-01-27T20:51:19.372Z,31.75
2019-01-27T20:53:49.135Z,34.90
2019-01-27T20:56:18.219Z,29.57
2019-01-27T20:58:46.187Z,30.40
2019-01-27T21:01:13.235Z,30.87
2019-01-27T21:03:41.644Z,33.73
2019-01-27T21:06:10.833Z,30.90
2019-01-27T21:08:44.922Z,29.87
2019-01-27T21:11:13.185Z,29.00
2019-01-27T21:13:45.007Z,29.80
2019-01-27T21:16:13.906Z,32.47
2019-01-27T21:18:44.458Z,34.37
2019-01-27T21:21:15.757Z,29.27
2019-01-27T21:23:45.405Z,32.03
2019-01-27T21:26:26.951Z,29.43
2019-01-27T21:28:58.050Z,31.37
2019-01-27T21:31:27.015Z,28.75
2019-01-27T21:33:56.035Z,27.98
2019-01-27T21:36:31.555Z,29.93
2019-01-27T21:38:56.794Z,28.03
2019-01-27T21:41:25.513Z,31.02
2019-01-27T21:43:53.820Z,32.40
2019-01-27T21:46:23.446Z,33.85
2019-01-27T21:48:50.253Z,31.17
2019-01-27T21:51:20.889Z,27.90
2019-01-27T21:53:48.496Z,29.23
2019-01-27T21:56:19.875Z,35.05
2019-01-27T21:58:47.072Z,28.47
2019-01-27T22:01:17.927Z,29.17
2019-01-27T22:03:45.007Z,35.00
2019-01-27T22:06:16.279Z,30.30
2019-01-27T22:08:46.277Z,32.58
2019-01-27T22:11:14.280Z,31.02
2019-01-27T22:13:46.061Z,28.07
2019-01-27T22:16:15.157Z,26.87
2019-01-27T22:18:42.618Z,29.37
2019-01-27T22:21:09.241Z,23.50
2019-01-27T22:23:36.907Z,29.07
2019-01-27T22:26:08.113Z,26.43
2019-01-27T22:31:21.932Z,25.07
2019-01-27T22:33:53.592Z,26.50
2019-01-27T22:36:24.695Z,25.70
2019-01-27T22:38:54.309Z,28.70
2019-01-27T22:41:21.193Z,25.55
2019-01-27T22:43:49.329Z,27.47
2019-01-27T22:46:16.201Z,25.92
2019-01-27T22:48:47.240Z,30.37
2019-01-27T22:51:15.123Z,31.57
2019-01-27T22:53:44.943Z,36.73
2019-01-27T22:56:16.705Z,28.32
2019-01-27T22:58:46.556Z,28.97
2019-01-27T23:01:14.208Z,27.50
2019-01-27T23:03:43.586Z,29.12
2019-01-27T23:06:11.460Z,26.47
2019-01-27T23:08:40.185Z,29.63
2019-01-27T23:11:11.055Z,27.27
2019-01-27T23:13:38.018Z,25.50
2019-01-27T23:16:06.867Z,27.03
2019-01-27T23:18:37.640Z,29.67
2019-01-27T23:21:08.576Z,25.77
2019-01-27T23:23:37.411Z,28.33
2019-01-27T23:26:06.275Z,26.97
2019-01-27T23:28:32.985Z,33.53
2019-01-27T23:31:03.061Z,35.40
2019-01-27T23:33:32.793Z,35.50
2019-01-27T23:36:03.371Z,37.17
2019-01-27T23:38:33.222Z,28.33
2019-01-27T23:41:04.702Z,28.47
2019-01-27T23:43:32.301Z,29.17
2019-01-27T23:46:02.502Z,32.17
2019-01-27T23:48:33.564Z,24.90
2019-01-27T23:51:00.752Z,28.33
2019-01-27T23:53:34.224Z,24.27
2019-01-27T23:56:02.879Z,27.23
2019-01-27T23:58:35.081Z,26.20
